sensor_id;sensor_type;location;lat;lon;timestamp;pressure;altitude;pressure_sealevel;temperature;humidity
48424;BME280;34232;42.502;26.014;2022-12-07T00:01:38;100303.75;;;10.75;89.91
48424;BME280;34232;42.502;26.014;2022-12-07T00:04:05;100308.53;;;10.81;89.73
48424;BME280;34232;42.502;26.014;2022-12-07T00:06:35;100311.06;;;10.83;89.88
48424;BME280;34232;42.502;26.014;2022-12-07T00:09:01;100310.81;;;10.75;90.12
48424;BME280;34232;42.502;26.014;2022-12-07T00:11:26;100309.84;;;10.76;89.90
48424;BME280;34232;42.502;26.014;2022-12-07T00:13:54;100305.44;;;10.76;89.87
48424;BME280;34232;42.502;26.014;2022-12-07T00:16:21;100313.44;;;10.75;90.02
48424;BME280;34232;42.502;26.014;2022-12-07T00:18:47;100308.28;;;10.73;90.29
48424;BME280;34232;42.502;26.014;2022-12-07T00:21:13;100311.56;;;10.66;90.85
48424;BME280;34232;42.502;26.014;2022-12-07T00:23:40;100304.63;;;10.54;91.29
48424;BME280;34232;42.502;26.014;2022-12-07T00:26:10;100311.66;;;10.64;91.34
48424;BME280;34232;42.502;26.014;2022-12-07T00:28:36;100314.19;;;10.66;91.11
48424;BME280;34232;42.502;26.014;2022-12-07T00:31:06;100311.44;;;10.67;90.75
48424;BME280;34232;42.502;26.014;2022-12-07T00:33:33;100312.28;;;10.68;90.77
48424;BME280;34232;42.502;26.014;2022-12-07T00:35:59;100312.28;;;10.68;90.84
48424;BME280;34232;42.502;26.014;2022-12-07T00:38:28;100299.09;;;10.57;91.03
48424;BME280;34232;42.502;26.014;2022-12-07T00:40:56;100303.03;;;10.62;91.29
48424;BME280;34232;42.502;26.014;2022-12-07T00:43:24;100290.00;;;10.61;90.97
48424;BME280;34232;42.502;26.014;2022-12-07T00:45:50;100300.28;;;10.64;90.80
48424;BME280;34232;42.502;26.014;2022-12-07T00:48:16;100294.44;;;10.60;90.85
48424;BME280;34232;42.502;26.014;2022-12-07T00:50:41;100301.25;;;10.63;90.67
48424;BME280;34232;42.502;26.014;2022-12-07T00:53:06;100303.16;;;10.61;90.58
48424;BME280;34232;42.502;26.014;2022-12-07T00:55:35;100295.78;;;10.55;90.74
48424;BME280;34232;42.502;26.014;2022-12-07T00:58:01;100301.25;;;10.51;91.11
48424;BME280;34232;42.502;26.014;2022-12-07T01:00:27;100301.50;;;10.48;91.24
48424;BME280;34232;42.502;26.014;2022-12-07T01:02:52;100297.19;;;10.47;91.59
48424;BME280;34232;42.502;26.014;2022-12-07T01:05:18;100292.75;;;10.48;91.65
48424;BME280;34232;42.502;26.014;2022-12-07T01:07:43;100287.72;;;10.45;91.68
48424;BME280;34232;42.502;26.014;2022-12-07T01:10:09;100285.94;;;10.45;91.09
48424;BME280;34232;42.502;26.014;2022-12-07T01:12:35;100273.00;;;10.42;90.94
48424;BME280;34232;42.502;26.014;2022-12-07T01:15:00;100276.50;;;10.43;91.08
48424;BME280;34232;42.502;26.014;2022-12-07T01:17:26;100267.03;;;10.40;91.54
48424;BME280;34232;42.502;26.014;2022-12-07T01:19:51;100282.25;;;10.37;91.74
48424;BME280;34232;42.502;26.014;2022-12-07T01:22:17;100270.63;;;10.39;91.76
48424;BME280;34232;42.502;26.014;2022-12-07T01:24:42;100262.72;;;10.39;91.10
48424;BME280;34232;42.502;26.014;2022-12-07T01:27:07;100265.34;;;10.39;90.96
48424;BME280;34232;42.502;26.014;2022-12-07T01:29:33;100263.72;;;10.38;90.83
48424;BME280;34232;42.502;26.014;2022-12-07T01:31:58;100264.78;;;10.36;91.08
48424;BME280;34232;42.502;26.014;2022-12-07T01:34:24;100253.53;;;10.23;91.63
48424;BME280;34232;42.502;26.014;2022-12-07T01:36:49;100256.28;;;10.21;91.72
48424;BME280;34232;42.502;26.014;2022-12-07T01:39:14;100249.78;;;10.14;92.18
48424;BME280;34232;42.502;26.014;2022-12-07T01:41:41;100256.03;;;10.24;92.36
48424;BME280;34232;42.502;26.014;2022-12-07T01:44:13;100251.97;;;10.31;92.44
48424;BME280;34232;42.502;26.014;2022-12-07T01:46:40;100254.25;;;10.36;92.41
48424;BME280;34232;42.502;26.014;2022-12-07T01:49:09;100253.75;;;10.42;92.14
48424;BME280;34232;42.502;26.014;2022-12-07T01:51:37;100246.94;;;10.39;91.73
48424;BME280;34232;42.502;26.014;2022-12-07T01:54:03;100246.25;;;10.37;91.57
48424;BME280;34232;42.502;26.014;2022-12-07T01:56:30;100246.22;;;10.26;92.11
48424;BME280;34232;42.502;26.014;2022-12-07T01:58:58;100245.75;;;10.21;92.88
48424;BME280;34232;42.502;26.014;2022-12-07T02:01:25;100240.97;;;10.26;92.49
48424;BME280;34232;42.502;26.014;2022-12-07T02:03:51;100238.34;;;10.26;92.00
48424;BME280;34232;42.502;26.014;2022-12-07T02:06:22;100249.09;;;10.23;92.59
48424;BME280;34232;42.502;26.014;2022-12-07T02:08:49;100237.75;;;10.23;93.07
48424;BME280;34232;42.502;26.014;2022-12-07T02:11:15;100238.09;;;10.29;92.43
48424;BME280;34232;42.502;26.014;2022-12-07T02:13:42;100228.88;;;10.24;92.70
48424;BME280;34232;42.502;26.014;2022-12-07T02:24:42;100228.03;;;10.23;93.18
48424;BME280;34232;42.502;26.014;2022-12-07T02:30:03;100218.00;;;10.28;92.91
48424;BME280;34232;42.502;26.014;2022-12-07T02:40:30;100219.56;;;10.31;92.82
48424;BME280;34232;42.502;26.014;2022-12-07T02:43:01;100228.78;;;10.36;92.02
48424;BME280;34232;42.502;26.014;2022-12-07T02:45:30;100226.88;;;10.38;91.89
48424;BME280;34232;42.502;26.014;2022-12-07T02:47:58;100222.28;;;10.40;92.14
48424;BME280;34232;42.502;26.014;2022-12-07T02:50:24;100218.59;;;10.43;91.60
48424;BME280;34232;42.502;26.014;2022-12-07T02:52:50;100221.81;;;10.46;91.12
48424;BME280;34232;42.502;26.014;2022-12-07T02:55:18;100225.16;;;10.48;90.87
48424;BME280;34232;42.502;26.014;2022-12-07T03:00:21;100220.63;;;10.50;90.82
48424;BME280;34232;42.502;26.014;2022-12-07T03:03:00;100189.75;;;10.41;90.93
48424;BME280;34232;42.502;26.014;2022-12-07T03:11:44;100216.44;;;10.48;91.75
48424;BME280;34232;42.502;26.014;2022-12-07T03:14:25;100217.75;;;10.42;91.79
48424;BME280;34232;42.502;26.014;2022-12-07T03:17:00;100219.94;;;10.37;92.17
48424;BME280;34232;42.502;26.014;2022-12-07T03:19:31;100224.34;;;10.37;92.41
48424;BME280;34232;42.502;26.014;2022-12-07T03:22:04;100220.63;;;10.39;92.54
48424;BME280;34232;42.502;26.014;2022-12-07T03:27:11;100223.25;;;10.39;92.91
48424;BME280;34232;42.502;26.014;2022-12-07T03:29:44;100208.19;;;10.30;93.01
48424;BME280;34232;42.502;26.014;2022-12-07T03:32:20;100218.25;;;10.36;92.38
48424;BME280;34232;42.502;26.014;2022-12-07T03:35:00;100222.56;;;10.37;92.02
48424;BME280;34232;42.502;26.014;2022-12-07T03:42:51;100229.13;;;10.32;92.31
48424;BME280;34232;42.502;26.014;2022-12-07T03:45:21;100228.19;;;10.33;92.64
48424;BME280;34232;42.502;26.014;2022-12-07T03:48:01;100220.88;;;10.36;91.97
48424;BME280;34232;42.502;26.014;2022-12-07T03:50:45;100205.81;;;10.27;91.47
48424;BME280;34232;42.502;26.014;2022-12-07T03:53:29;100204.50;;;10.22;91.76
48424;BME280;34232;42.502;26.014;2022-12-07T03:55:57;100205.91;;;10.03;92.05
48424;BME280;34232;42.502;26.014;2022-12-07T03:58:24;100209.84;;;10.09;92.23
48424;BME280;34232;42.502;26.014;2022-12-07T04:00:50;100206.25;;;10.10;92.26
48424;BME280;34232;42.502;26.014;2022-12-07T04:03:17;100207.94;;;10.11;92.20
48424;BME280;34232;42.502;26.014;2022-12-07T04:05:42;100203.84;;;10.07;92.32
48424;BME280;34232;42.502;26.014;2022-12-07T04:08:08;100204.34;;;10.01;92.55
48424;BME280;34232;42.502;26.014;2022-12-07T04:10:34;100206.25;;;9.99;92.63
48424;BME280;34232;42.502;26.014;2022-12-07T04:12:59;100202.69;;;9.89;93.12
48424;BME280;34232;42.502;26.014;2022-12-07T04:15:25;100203.25;;;9.92;93.18
48424;BME280;34232;42.502;26.014;2022-12-07T04:17:50;100196.94;;;9.95;92.99
48424;BME280;34232;42.502;26.014;2022-12-07T04:20:16;100200.78;;;10.02;92.66
48424;BME280;34232;42.502;26.014;2022-12-07T04:22:41;100191.44;;;9.98;92.83
48424;BME280;34232;42.502;26.014;2022-12-07T04:25:07;100201.50;;;10.04;92.82
48424;BME280;34232;42.502;26.014;2022-12-07T04:27:32;100195.72;;;10.10;92.57
48424;BME280;34232;42.502;26.014;2022-12-07T04:29:58;100195.97;;;10.07;92.73
48424;BME280;34232;42.502;26.014;2022-12-07T04:32:23;100208.16;;;10.08;92.71
48424;BME280;34232;42.502;26.014;2022-12-07T04:34:49;100202.91;;;10.08;92.90
48424;BME280;34232;42.502;26.014;2022-12-07T04:37:14;100196.44;;;10.12;92.62
48424;BME280;34232;42.502;26.014;2022-12-07T04:39:40;100202.66;;;10.11;92.62
48424;BME280;34232;42.502;26.014;2022-12-07T04:42:05;100203.50;;;10.11;92.56
48424;BME280;34232;42.502;26.014;2022-12-07T04:44:31;100194.06;;;9.87;93.50
48424;BME280;34232;42.502;26.014;2022-12-07T04:46:56;100198.00;;;9.92;93.92
48424;BME280;34232;42.502;26.014;2022-12-07T04:49:22;100206.25;;;9.99;93.96
48424;BME280;34232;42.502;26.014;2022-12-07T04:51:48;100201.72;;;10.01;93.83
48424;BME280;34232;42.502;26.014;2022-12-07T04:54:14;100204.00;;;10.05;93.56
48424;BME280;34232;42.502;26.014;2022-12-07T04:56:40;100203.63;;;10.10;93.41
48424;BME280;34232;42.502;26.014;2022-12-07T04:59:06;100201.84;;;10.10;92.89
48424;BME280;34232;42.502;26.014;2022-12-07T05:01:32;100201.22;;;10.07;93.56
48424;BME280;34232;42.502;26.014;2022-12-07T05:03:59;100202.91;;;10.08;93.02
48424;BME280;34232;42.502;26.014;2022-12-07T05:06:24;100198.47;;;10.08;93.29
48424;BME280;34232;42.502;26.014;2022-12-07T05:08:50;100199.81;;;10.03;93.44
48424;BME280;34232;42.502;26.014;2022-12-07T05:11:16;100196.94;;;9.95;93.69
48424;BME280;34232;42.502;26.014;2022-12-07T05:14:00;100197.88;;;9.94;93.33
48424;BME280;34232;42.502;26.014;2022-12-07T05:16:26;100203.03;;;9.95;93.80
48424;BME280;34232;42.502;26.014;2022-12-07T05:18:52;100202.19;;;9.95;94.07
48424;BME280;34232;42.502;26.014;2022-12-07T05:21:18;100195.25;;;9.94;94.36
48424;BME280;34232;42.502;26.014;2022-12-07T05:23:43;100207.22;;;9.87;94.88
48424;BME280;34232;42.502;26.014;2022-12-07T05:26:09;100197.41;;;9.89;94.94
48424;BME280;34232;42.502;26.014;2022-12-07T05:28:35;100183.78;;;9.72;95.19
48424;BME280;34232;42.502;26.014;2022-12-07T05:31:00;100193.47;;;9.83;95.67
48424;BME280;34232;42.502;26.014;2022-12-07T05:33:26;100208.16;;;9.86;95.67
48424;BME280;34232;42.502;26.014;2022-12-07T05:35:51;100208.41;;;9.82;95.91
48424;BME280;34232;42.502;26.014;2022-12-07T05:38:16;100212.59;;;9.74;96.56
48424;BME280;34232;42.502;26.014;2022-12-07T05:40:42;100207.28;;;9.63;97.04
48424;BME280;34232;42.502;26.014;2022-12-07T05:43:07;100202.50;;;9.57;97.72
48424;BME280;34232;42.502;26.014;2022-12-07T05:45:33;100212.66;;;9.61;97.55
48424;BME280;34232;42.502;26.014;2022-12-07T05:47:58;100207.41;;;9.61;97.91
48424;BME280;34232;42.502;26.014;2022-12-07T05:50:24;100208.59;;;9.57;97.97
48424;BME280;34232;42.502;26.014;2022-12-07T05:52:49;100207.91;;;9.66;98.20
48424;BME280;34232;42.502;26.014;2022-12-07T05:55:15;100208.72;;;9.67;97.76
48424;BME280;34232;42.502;26.014;2022-12-07T05:57:40;100199.16;;;9.66;97.92
48424;BME280;34232;42.502;26.014;2022-12-07T06:00:25;100208.84;;;9.76;97.52
48424;BME280;34232;42.502;26.014;2022-12-07T06:02:51;100214.72;;;9.80;97.40
48424;BME280;34232;42.502;26.014;2022-12-07T06:05:16;100220.09;;;9.78;97.49
48424;BME280;34232;42.502;26.014;2022-12-07T06:07:41;100198.59;;;9.73;97.16
48424;BME280;34232;42.502;26.014;2022-12-07T06:10:07;100218.19;;;9.69;97.51
48424;BME280;34232;42.502;26.014;2022-12-07T06:12:33;100218.19;;;9.69;97.79
48424;BME280;34232;42.502;26.014;2022-12-07T06:15:03;100226.06;;;9.80;97.56
48424;BME280;34232;42.502;26.014;2022-12-07T06:17:29;100229.66;;;9.79;97.64
48424;BME280;34232;42.502;26.014;2022-12-07T06:19:54;100225.59;;;9.75;97.27
48424;BME280;34232;42.502;26.014;2022-12-07T06:22:19;100227.16;;;9.78;97.13
48424;BME280;34232;42.502;26.014;2022-12-07T06:24:45;100226.78;;;9.71;97.26
48424;BME280;34232;42.502;26.014;2022-12-07T06:27:10;100230.38;;;9.70;97.03
48424;BME280;34232;42.502;26.014;2022-12-07T06:29:36;100224.63;;;9.76;96.89
48424;BME280;34232;42.502;26.014;2022-12-07T06:32:02;100221.03;;;9.77;97.01
48424;BME280;34232;42.502;26.014;2022-12-07T06:34:27;100234.19;;;9.77;97.46
48424;BME280;34232;42.502;26.014;2022-12-07T06:36:53;100226.06;;;9.80;96.96
48424;BME280;34232;42.502;26.014;2022-12-07T06:39:25;100236.84;;;9.89;97.08
48424;BME280;34232;42.502;26.014;2022-12-07T06:41:51;100224.91;;;9.96;96.44
48424;BME280;34232;42.502;26.014;2022-12-07T06:44:17;100225.28;;;10.02;96.11
48424;BME280;34232;42.502;26.014;2022-12-07T06:46:43;100231.50;;;10.01;96.49
48424;BME280;34232;42.502;26.014;2022-12-07T06:49:09;100232.94;;;10.05;96.66
48424;BME280;34232;42.502;26.014;2022-12-07T06:51:34;100230.41;;;10.15;95.63
48424;BME280;34232;42.502;26.014;2022-12-07T06:54:02;100226.09;;;10.14;95.50
48424;BME280;34232;42.502;26.014;2022-12-07T06:56:28;100228.88;;;10.24;95.21
48424;BME280;34232;42.502;26.014;2022-12-07T06:58:54;100225.16;;;10.15;95.22
48424;BME280;34232;42.502;26.014;2022-12-07T07:01:19;100229.03;;;10.22;94.92
48424;BME280;34232;42.502;26.014;2022-12-07T07:03:45;100228.19;;;10.22;94.41
48424;BME280;34232;42.502;26.014;2022-12-07T07:06:11;100231.66;;;10.22;94.15
48424;BME280;34232;42.502;26.014;2022-12-07T07:08:38;100235.81;;;10.25;93.88
48424;BME280;34232;42.502;26.014;2022-12-07T07:11:04;100232.00;;;10.29;93.93
48424;BME280;34232;42.502;26.014;2022-12-07T07:13:30;100210.84;;;10.19;93.52
48424;BME280;34232;42.502;26.014;2022-12-07T07:15:56;100219.22;;;10.35;92.91
48424;BME280;34232;42.502;26.014;2022-12-07T07:18:30;100222.78;;;10.34;92.17
48424;BME280;34232;42.502;26.014;2022-12-07T07:20:56;100213.22;;;10.33;92.42
48424;BME280;34232;42.502;26.014;2022-12-07T07:23:21;100217.97;;;10.17;92.98
48424;BME280;34232;42.502;26.014;2022-12-07T07:25:47;100213.41;;;10.08;93.93
48424;BME280;34232;42.502;26.014;2022-12-07T07:28:13;100226.84;;;10.16;93.51
48424;BME280;34232;42.502;26.014;2022-12-07T07:30:39;100237.16;;;10.19;94.22
48424;BME280;34232;42.502;26.014;2022-12-07T07:33:05;100233.78;;;10.17;94.39
48424;BME280;34232;42.502;26.014;2022-12-07T07:35:32;100230.41;;;10.15;93.82
48424;BME280;34232;42.502;26.014;2022-12-07T07:37:58;100232.31;;;10.13;93.86
48424;BME280;34232;42.502;26.014;2022-12-07T07:40:24;100226.84;;;10.16;93.42
48424;BME280;34232;42.502;26.014;2022-12-07T07:42:50;100236.66;;;10.25;93.34
48424;BME280;34232;42.502;26.014;2022-12-07T07:45:16;100236.78;;;10.35;93.50
48424;BME280;34232;42.502;26.014;2022-12-07T07:47:42;100229.50;;;10.38;93.49
48424;BME280;34232;42.502;26.014;2022-12-07T07:50:08;100235.81;;;10.47;93.30
48424;BME280;34232;42.502;26.014;2022-12-07T07:52:33;100235.22;;;10.55;92.44
48424;BME280;34232;42.502;26.014;2022-12-07T07:54:59;100233.28;;;10.57;91.42
48424;BME280;34232;42.502;26.014;2022-12-07T07:57:24;100217.50;;;10.57;90.71
48424;BME280;34232;42.502;26.014;2022-12-07T07:59:49;100239.03;;;10.39;91.49
48424;BME280;34232;42.502;26.014;2022-12-07T08:02:19;100226.25;;;10.24;91.98
48424;BME280;34232;42.502;26.014;2022-12-07T08:04:45;100244.81;;;10.33;92.28
48424;BME280;34232;42.502;26.014;2022-12-07T08:07:12;100248.16;;;10.35;92.84
48424;BME280;34232;42.502;26.014;2022-12-07T08:09:37;100245.28;;;10.49;93.87
48424;BME280;34232;42.502;26.014;2022-12-07T08:12:03;100249.09;;;10.68;93.42
48424;BME280;34232;42.502;26.014;2022-12-07T08:14:29;100245.72;;;10.66;91.47
48424;BME280;34232;42.502;26.014;2022-12-07T08:16:55;100243.56;;;10.71;89.94
48424;BME280;34232;42.502;26.014;2022-12-07T08:19:23;100252.44;;;10.70;90.50
48424;BME280;34232;42.502;26.014;2022-12-07T08:21:48;100236.88;;;10.67;90.66
48424;BME280;34232;42.502;26.014;2022-12-07T08:24:14;100238.88;;;10.74;90.01
48424;BME280;34232;42.502;26.014;2022-12-07T08:26:40;100247.84;;;10.83;89.11
48424;BME280;34232;42.502;26.014;2022-12-07T08:29:05;100253.38;;;10.58;89.09
48424;BME280;34232;42.502;26.014;2022-12-07T08:31:31;100234.25;;;10.56;89.27
48424;BME280;34232;42.502;26.014;2022-12-07T08:33:56;100238.06;;;10.63;87.68
48424;BME280;34232;42.502;26.014;2022-12-07T08:36:22;100234.09;;;10.79;87.49
48424;BME280;34232;42.502;26.014;2022-12-07T08:38:48;100224.50;;;10.78;87.90
48424;BME280;34232;42.502;26.014;2022-12-07T08:41:14;100225.78;;;10.95;86.41
48424;BME280;34232;42.502;26.014;2022-12-07T08:43:40;100219.44;;;10.98;83.96
48424;BME280;34232;42.502;26.014;2022-12-07T08:46:17;100230.53;;;11.12;84.50
48424;BME280;34232;42.502;26.014;2022-12-07T08:48:48;100216.84;;;11.18;82.92
48424;BME280;34232;42.502;26.014;2022-12-07T08:51:14;100219.91;;;11.35;82.63
48424;BME280;34232;42.502;26.014;2022-12-07T08:53:40;100200.91;;;11.41;82.65
48424;BME280;34232;42.502;26.014;2022-12-07T08:56:07;100208.50;;;11.55;81.21
48424;BME280;34232;42.502;26.014;2022-12-07T08:58:34;100211.53;;;11.71;79.95
48424;BME280;34232;42.502;26.014;2022-12-07T09:01:00;100201.38;;;11.87;79.35
48424;BME280;34232;42.502;26.014;2022-12-07T09:03:26;100198.34;;;11.92;78.02
48424;BME280;34232;42.502;26.014;2022-12-07T09:05:53;100210.28;;;12.17;76.97
48424;BME280;34232;42.502;26.014;2022-12-07T09:08:19;100203.66;;;12.32;78.12
48424;BME280;34232;42.502;26.014;2022-12-07T09:10:45;100192.63;;;12.57;77.60
48424;BME280;34232;42.502;26.014;2022-12-07T09:13:11;100182.06;;;12.67;76.17
48424;BME280;34232;42.502;26.014;2022-12-07T09:15:36;100186.00;;;12.92;72.66
48424;BME280;34232;42.502;26.014;2022-12-07T09:18:02;100190.31;;;13.12;72.42
48424;BME280;34232;42.502;26.014;2022-12-07T09:20:28;100182.13;;;13.15;70.28
48424;BME280;34232;42.502;26.014;2022-12-07T09:22:53;100184.91;;;13.23;70.54
48424;BME280;34232;42.502;26.014;2022-12-07T09:25:18;100178.38;;;13.27;70.31
48424;BME280;34232;42.502;26.014;2022-12-07T09:27:44;100181.03;;;13.27;69.55
48424;BME280;34232;42.502;26.014;2022-12-07T09:30:09;100177.97;;;13.22;70.74
48424;BME280;34232;42.502;26.014;2022-12-07T09:32:35;100174.47;;;13.31;68.75
48424;BME280;34232;42.502;26.014;2022-12-07T09:35:00;100165.97;;;13.38;68.59
48424;BME280;34232;42.502;26.014;2022-12-07T09:37:26;100161.34;;;13.49;68.89
48424;BME280;34232;42.502;26.014;2022-12-07T09:39:51;100165.66;;;13.60;69.92
48424;BME280;34232;42.502;26.014;2022-12-07T09:42:29;100165.38;;;13.53;68.37
48424;BME280;34232;42.502;26.014;2022-12-07T09:44:55;100165.38;;;13.53;67.62
48424;BME280;34232;42.502;26.014;2022-12-07T09:47:21;100147.00;;;13.52;67.22
48424;BME280;34232;42.502;26.014;2022-12-07T09:49:46;100158.19;;;13.46;66.83
48424;BME280;34232;42.502;26.014;2022-12-07T09:54:40;100147.06;;;13.13;67.05
48424;BME280;34232;42.502;26.014;2022-12-07T09:57:08;100145.25;;;13.23;67.96
48424;BME280;34232;42.502;26.014;2022-12-07T09:59:34;100147.03;;;13.32;68.22
48424;BME280;34232;42.502;26.014;2022-12-07T10:02:22;100124.63;;;13.37;66.33
48424;BME280;34232;42.502;26.014;2022-12-07T10:04:49;100134.53;;;13.44;65.63
48424;BME280;34232;42.502;26.014;2022-12-07T10:07:14;100132.16;;;13.31;66.76
48424;BME280;34232;42.502;26.014;2022-12-07T10:09:39;100133.16;;;13.30;65.58
48424;BME280;34232;42.502;26.014;2022-12-07T10:12:10;100131.75;;;13.26;65.96
48424;BME280;34232;42.502;26.014;2022-12-07T10:15:02;100128.13;;;13.18;67.13
48424;BME280;34232;42.502;26.014;2022-12-07T10:17:36;100129.94;;;13.17;68.50
48424;BME280;34232;42.502;26.014;2022-12-07T10:23:05;100123.28;;;12.94;68.91
48424;BME280;34232;42.502;26.014;2022-12-07T10:25:38;100115.63;;;12.72;67.67
48424;BME280;34232;42.502;26.014;2022-12-07T10:28:13;100118.94;;;12.54;67.42
48424;BME280;34232;42.502;26.014;2022-12-07T10:33:32;100110.88;;;12.46;67.54
48424;BME280;34232;42.502;26.014;2022-12-07T10:35:58;100111.75;;;12.66;67.37
48424;BME280;34232;42.502;26.014;2022-12-07T10:38:28;100111.72;;;12.76;66.83
48424;BME280;34232;42.502;26.014;2022-12-07T10:41:07;100111.72;;;12.76;66.49
48424;BME280;34232;42.502;26.014;2022-12-07T10:43:34;100113.69;;;12.74;66.48
48424;BME280;34232;42.502;26.014;2022-12-07T10:46:37;100110.06;;;12.75;67.87
48424;BME280;34232;42.502;26.014;2022-12-07T10:52:05;100103.53;;;12.79;68.19
48424;BME280;34232;42.502;26.014;2022-12-07T10:57:18;100105.75;;;12.64;71.23
48424;BME280;34232;42.502;26.014;2022-12-07T11:11:44;100083.09;;;12.42;70.96
48424;BME280;34232;42.502;26.014;2022-12-07T11:16:55;100071.69;;;12.51;69.62
48424;BME280;34232;42.502;26.014;2022-12-07T11:21:58;100065.28;;;12.83;69.54
48424;BME280;34232;42.502;26.014;2022-12-07T11:24:48;100055.13;;;12.88;69.11
48424;BME280;34232;42.502;26.014;2022-12-07T11:32:39;100052.63;;;12.86;69.00
48424;BME280;34232;42.502;26.014;2022-12-07T11:35:14;100056.53;;;12.92;68.06
48424;BME280;34232;42.502;26.014;2022-12-07T11:37:44;100058.03;;;13.14;67.94
48424;BME280;34232;42.502;26.014;2022-12-07T11:42:49;100058.31;;;13.01;65.99
48424;BME280;34232;42.502;26.014;2022-12-07T11:45:23;100054.13;;;13.18;66.24
48424;BME280;34232;42.502;26.014;2022-12-07T11:48:01;100050.19;;;13.31;65.14
48424;BME280;34232;42.502;26.014;2022-12-07T11:50:37;100047.41;;;13.43;65.65
48424;BME280;34232;42.502;26.014;2022-12-07T12:03:53;100033.16;;;13.53;62.51
48424;BME280;34232;42.502;26.014;2022-12-07T12:06:20;100030.69;;;13.42;62.41
48424;BME280;34232;42.502;26.014;2022-12-07T12:22:18;100018.09;;;13.54;64.57
48424;BME280;34232;42.502;26.014;2022-12-07T12:24:49;100006.00;;;13.51;63.73
48424;BME280;34232;42.502;26.014;2022-12-07T12:27:27;100010.91;;;13.46;65.44
48424;BME280;34232;42.502;26.014;2022-12-07T12:29:59;100001.47;;;13.44;65.47
48424;BME280;34232;42.502;26.014;2022-12-07T12:32:44;99998.59;;;13.27;66.00
48424;BME280;34232;42.502;26.014;2022-12-07T12:35:32;100001.25;;;13.27;66.28
48424;BME280;34232;42.502;26.014;2022-12-07T12:38:25;99993.69;;;13.32;65.99
48424;BME280;34232;42.502;26.014;2022-12-07T12:40:53;99995.97;;;13.27;65.28
48424;BME280;34232;42.502;26.014;2022-12-07T12:43:45;99998.56;;;13.37;65.53
48424;BME280;34232;42.502;26.014;2022-12-07T12:49:43;99994.50;;;13.43;66.18
48424;BME280;34232;42.502;26.014;2022-12-07T12:55:11;99986.75;;;13.31;66.59
48424;BME280;34232;42.502;26.014;2022-12-07T12:57:37;99985.09;;;13.30;66.86
48424;BME280;34232;42.502;26.014;2022-12-07T13:02:54;99984.84;;;13.24;67.17
48424;BME280;34232;42.502;26.014;2022-12-07T13:05:32;99984.69;;;13.25;67.29
48424;BME280;34232;42.502;26.014;2022-12-07T13:15:40;99991.06;;;12.67;69.32
48424;BME280;34232;42.502;26.014;2022-12-07T13:20:43;100003.00;;;12.90;69.13
48424;BME280;34232;42.502;26.014;2022-12-07T13:23:09;100002.00;;;12.91;69.22
48424;BME280;34232;42.502;26.014;2022-12-07T13:25:46;100005.06;;;12.86;69.43
48424;BME280;34232;42.502;26.014;2022-12-07T13:28:17;100006.63;;;12.79;69.83
48424;BME280;34232;42.502;26.014;2022-12-07T13:31:11;100000.78;;;12.76;70.03
48424;BME280;34232;42.502;26.014;2022-12-07T13:33:38;99997.63;;;12.63;71.00
48424;BME280;34232;42.502;26.014;2022-12-07T13:36:18;99987.88;;;12.34;71.63
48424;BME280;34232;42.502;26.014;2022-12-07T13:39:16;99990.25;;;12.47;71.60
48424;BME280;34232;42.502;26.014;2022-12-07T13:41:43;99994.97;;;12.43;71.43
48424;BME280;34232;42.502;26.014;2022-12-07T13:44:11;99984.44;;;12.34;72.20
48424;BME280;34232;42.502;26.014;2022-12-07T13:49:36;99981.25;;;12.30;72.43
48424;BME280;34232;42.502;26.014;2022-12-07T13:55:00;99989.69;;;12.53;72.26
48424;BME280;34232;42.502;26.014;2022-12-07T13:57:28;99998.03;;;12.58;72.65
48424;BME280;34232;42.502;26.014;2022-12-07T13:59:55;99997.63;;;12.43;72.73
48424;BME280;34232;42.502;26.014;2022-12-07T14:02:29;99996.94;;;12.41;73.46
48424;BME280;34232;42.502;26.014;2022-12-07T14:05:22;100006.38;;;12.53;73.06
48424;BME280;34232;42.502;26.014;2022-12-07T14:10:31;100009.16;;;12.61;72.36
48424;BME280;34232;42.502;26.014;2022-12-07T14:12:57;100019.72;;;12.61;72.34
48424;BME280;34232;42.502;26.014;2022-12-07T14:15:33;100017.63;;;12.55;72.64
48424;BME280;34232;42.502;26.014;2022-12-07T14:18:01;100015.25;;;12.52;73.04
48424;BME280;34232;42.502;26.014;2022-12-07T14:20:37;100018.47;;;12.56;72.90
48424;BME280;34232;42.502;26.014;2022-12-07T14:23:04;100009.28;;;12.60;72.96
48424;BME280;34232;42.502;26.014;2022-12-07T14:25:49;100007.22;;;12.64;72.80
48424;BME280;34232;42.502;26.014;2022-12-07T14:28:30;99993.31;;;12.52;73.32
48424;BME280;34232;42.502;26.014;2022-12-07T14:30:56;100009.69;;;12.55;73.28
48424;BME280;34232;42.502;26.014;2022-12-07T14:33:22;100007.19;;;12.54;73.61
48424;BME280;34232;42.502;26.014;2022-12-07T14:35:48;100009.56;;;12.57;73.67
48424;BME280;34232;42.502;26.014;2022-12-07T14:38:14;99989.44;;;12.46;73.72
48424;BME280;34232;42.502;26.014;2022-12-07T14:40:40;100005.28;;;12.46;73.84
48424;BME280;34232;42.502;26.014;2022-12-07T14:43:09;100006.66;;;12.31;74.76
48424;BME280;34232;42.502;26.014;2022-12-07T14:45:36;99996.50;;;12.26;74.56
48424;BME280;34232;42.502;26.014;2022-12-07T14:48:02;99989.13;;;12.11;75.12
48424;BME280;34232;42.502;26.014;2022-12-07T14:50:27;100002.47;;;12.19;75.29
48424;BME280;34232;42.502;26.014;2022-12-07T14:52:59;99991.25;;;12.17;74.94
48424;BME280;34232;42.502;26.014;2022-12-07T14:55:29;100000.53;;;12.11;75.26
48424;BME280;34232;42.502;26.014;2022-12-07T14:57:56;100000.09;;;12.06;75.75